createdAt,value
2018-02-21T00:01:24.241Z,25.50
2018-02-21T00:03:27.791Z,25.83
2018-02-21T00:05:30.978Z,25.23
2018-02-21T00:07:34.154Z,24.85
2018-02-21T00:09:37.349Z,25.52
2018-02-21T00:11:40.537Z,24.08
2018-02-21T00:13:43.724Z,26.42
2018-02-21T00:15:46.911Z,26.15
2018-02-21T00:17:50.113Z,26.25
2018-02-21T00:19:54.048Z,25.52
2018-02-21T00:21:57.277Z,23.58
2018-02-21T00:24:00.495Z,25.02
2018-02-21T00:26:03.665Z,25.45
2018-02-21T00:28:07.642Z,27.17
2018-02-21T00:30:10.797Z,28.25
2018-02-21T00:32:14.759Z,28.80
2018-02-21T00:34:17.963Z,30.45
2018-02-21T00:36:21.161Z,30.25
2018-02-21T00:38:24.345Z,29.98
2018-02-21T00:40:28.287Z,30.52
2018-02-21T00:42:32.412Z,28.42
2018-02-21T00:44:36.357Z,29.65
2018-02-21T00:46:39.547Z,29.30
2018-02-21T00:48:43.499Z,28.60
2018-02-21T00:50:46.673Z,29.63
2018-02-21T00:52:50.664Z,28.48
2018-02-21T00:54:53.893Z,27.55
2018-02-21T00:56:57.099Z,26.98
2018-02-21T00:59:00.283Z,26.98
2018-02-21T01:01:03.482Z,26.95
2018-02-21T01:03:06.674Z,27.48
2018-02-21T01:05:09.902Z,27.37
2018-02-21T01:07:18.452Z,28.33
2018-02-21T01:09:21.659Z,24.42
2018-02-21T01:11:24.852Z,29.55
2018-02-21T01:13:28.037Z,28.25
2018-02-21T01:15:31.233Z,29.58
2018-02-21T01:17:35.208Z,28.25
2018-02-21T01:19:38.388Z,30.92
2018-02-21T01:21:41.587Z,28.20
2018-02-21T01:23:44.763Z,28.05
2018-02-21T01:25:48.744Z,27.60
2018-02-21T01:27:51.961Z,27.37
2018-02-21T01:29:55.529Z,27.60
2018-02-21T01:31:59.491Z,30.50
2018-02-21T01:34:02.668Z,31.25
2018-02-21T01:36:06.661Z,30.67
2018-02-21T01:38:09.832Z,31.65
2018-02-21T01:40:13.029Z,30.17
2018-02-21T01:42:16.226Z,31.15
2018-02-21T01:44:21.085Z,30.92
2018-02-21T01:46:24.287Z,30.40
2018-02-21T01:48:28.259Z,29.50
2018-02-21T01:50:48.984Z,30.65
2018-02-21T01:52:52.185Z,27.42
2018-02-21T01:54:55.369Z,28.55
2018-02-21T01:56:58.574Z,29.35
2018-02-21T01:59:01.782Z,29.92
2018-02-21T02:01:04.973Z,28.77
2018-02-21T02:03:08.234Z,26.48
2018-02-21T02:05:11.531Z,28.40
2018-02-21T02:07:15.025Z,28.60
2018-02-21T02:09:18.207Z,29.65
2018-02-21T02:11:22.156Z,30.92
2018-02-21T02:13:25.892Z,29.63
2018-02-21T02:15:29.063Z,27.98
2018-02-21T02:17:33.045Z,29.10
2018-02-21T02:19:36.230Z,28.90
2018-02-21T02:21:39.434Z,26.90
2018-02-21T02:23:42.627Z,28.90
2018-02-21T02:25:45.793Z,28.17
2018-02-21T02:27:49.004Z,28.38
2018-02-21T02:29:52.232Z,30.40
2018-02-21T02:31:56.750Z,27.17
2018-02-21T02:34:00.490Z,30.10
2018-02-21T02:36:04.194Z,28.48
2018-02-21T02:38:07.489Z,28.62
2018-02-21T02:40:10.733Z,29.70
2018-02-21T02:42:14.866Z,28.30
2018-02-21T02:44:19.855Z,26.45
2018-02-21T02:46:23.501Z,26.12
2018-02-21T02:48:26.932Z,27.33
2018-02-21T02:50:30.145Z,27.00
2018-02-21T02:52:33.486Z,28.00
2018-02-21T02:54:37.447Z,26.17
2018-02-21T02:56:40.689Z,27.90
2018-02-21T02:58:44.001Z,27.48
2018-02-21T03:00:47.190Z,27.75
2018-02-21T03:02:50.369Z,26.42
2018-02-21T03:04:55.499Z,26.42
2018-02-21T03:06:58.698Z,27.70
2018-02-21T03:09:01.910Z,25.73
2018-02-21T03:11:05.889Z,26.02
2018-02-21T03:13:09.072Z,28.02
2018-02-21T03:15:12.246Z,25.65
2018-02-21T03:17:15.450Z,24.73
2018-02-21T03:19:18.658Z,27.33
2018-02-21T03:21:23.277Z,26.45
2018-02-21T03:23:26.607Z,26.52
2018-02-21T03:25:29.777Z,29.25
2018-02-21T03:27:32.991Z,27.65
2018-02-21T03:29:36.193Z,26.40
2018-02-21T03:31:39.646Z,31.50
2018-02-21T03:33:42.892Z,25.62
2018-02-21T03:35:46.116Z,27.17
2018-02-21T03:37:49.552Z,26.67
2018-02-21T03:39:52.726Z,25.75
2018-02-21T03:41:55.924Z,26.15
2018-02-21T03:43:59.101Z,26.95
2018-02-21T03:46:02.280Z,25.77
2018-02-21T03:48:05.497Z,27.62
2018-02-21T03:50:08.706Z,27.55
2018-02-21T03:52:11.892Z,25.58
2018-02-21T03:54:15.098Z,28.00
2018-02-21T03:56:18.309Z,24.10
2018-02-21T03:58:21.493Z,26.92
2018-02-21T04:00:24.684Z,29.20
2018-02-21T04:02:27.882Z,25.35
2018-02-21T04:04:31.082Z,27.73
2018-02-21T04:06:34.257Z,28.80
2018-02-21T04:08:37.465Z,26.85
2018-02-21T04:10:40.672Z,26.33
2018-02-21T04:12:43.855Z,25.85
2018-02-21T04:14:47.020Z,27.08
2018-02-21T04:16:50.209Z,26.55
2018-02-21T04:18:53.375Z,25.40
2018-02-21T04:20:56.574Z,25.60
2018-02-21T04:22:59.795Z,26.08
2018-02-21T04:25:03.025Z,26.65
2018-02-21T04:27:06.949Z,25.83
2018-02-21T04:29:10.128Z,26.42
2018-02-21T04:31:13.338Z,27.55
2018-02-21T04:33:16.544Z,27.10
2018-02-21T04:35:19.745Z,27.48
2018-02-21T04:37:22.971Z,27.60
2018-02-21T04:39:26.181Z,26.15
2018-02-21T04:41:29.373Z,27.35
2018-02-21T04:43:32.561Z,27.40
2018-02-21T04:45:35.761Z,27.33
2018-02-21T04:47:38.959Z,26.83
2018-02-21T04:49:42.126Z,25.33
2018-02-21T04:51:45.337Z,26.80
2018-02-21T04:53:48.550Z,25.70
2018-02-21T04:55:57.232Z,28.02
2018-02-21T04:58:05.901Z,26.02
2018-02-21T05:00:10.450Z,26.40
2018-02-21T05:02:13.661Z,26.92
2018-02-21T05:04:16.869Z,27.02
2018-02-21T05:06:20.895Z,27.52
2018-02-21T05:08:24.145Z,28.50
2018-02-21T05:10:27.369Z,27.58
2018-02-21T05:12:30.568Z,28.42
2018-02-21T05:14:33.779Z,26.70
2018-02-21T05:16:36.990Z,26.87
2018-02-21T05:18:40.932Z,27.52
2018-02-21T05:20:44.132Z,28.45
2018-02-21T05:22:49.156Z,27.80
2018-02-21T05:24:52.897Z,26.17
2018-02-21T05:26:58.046Z,26.85
2018-02-21T05:29:01.926Z,26.40
2018-02-21T05:34:06.426Z,27.02
2018-02-21T05:36:11.542Z,26.55
2018-02-21T05:38:15.626Z,27.83
2018-02-21T05:40:20.094Z,28.35
2018-02-21T05:42:25.460Z,28.62
2018-02-21T05:44:31.418Z,29.35
2018-02-21T05:46:38.593Z,29.12
2018-02-21T05:48:44.279Z,28.65
2018-02-21T05:50:50.535Z,30.20
2018-02-21T05:52:57.380Z,30.20
2018-02-21T05:55:03.167Z,29.05
2018-02-21T05:57:08.055Z,29.30
2018-02-21T05:59:11.983Z,28.62
2018-02-21T06:01:16.140Z,29.80
2018-02-21T06:03:20.539Z,31.10
2018-02-21T06:05:24.063Z,29.55
2018-02-21T06:07:28.084Z,29.48
2018-02-21T06:09:31.925Z,30.30
2018-02-21T06:11:35.590Z,31.35
2018-02-21T06:13:40.518Z,32.00
2018-02-21T06:15:46.397Z,29.92
2018-02-21T06:17:51.507Z,30.15
2018-02-21T06:19:55.722Z,29.48
2018-02-21T06:22:00.178Z,30.75
2018-02-21T06:24:04.484Z,30.25
2018-02-21T06:26:08.862Z,31.00
2018-02-21T06:28:12.319Z,29.87
2018-02-21T06:30:15.622Z,31.75
2018-02-21T06:32:19.565Z,30.95
2018-02-21T06:34:24.135Z,30.40
2018-02-21T06:36:29.386Z,30.73
2018-02-21T06:38:33.615Z,29.92
2018-02-21T06:40:38.638Z,30.98
2018-02-21T06:42:42.391Z,32.33
2018-02-21T06:44:45.595Z,31.58
2018-02-21T06:46:48.786Z,29.77
2018-02-21T06:48:51.990Z,31.87
2018-02-21T06:50:55.168Z,31.27
2018-02-21T06:52:58.353Z,30.48
2018-02-21T06:55:02.520Z,30.62
2018-02-21T06:57:06.842Z,33.80
2018-02-21T06:59:10.333Z,31.75
2018-02-21T07:01:15.226Z,31.77
2018-02-21T07:03:19.695Z,31.42
2018-02-21T07:05:23.001Z,31.90
2018-02-21T07:07:26.170Z,31.73
2018-02-21T07:09:30.157Z,33.30
2018-02-21T07:11:33.324Z,32.85
2018-02-21T07:13:37.286Z,31.40
2018-02-21T07:15:40.529Z,31.25
2018-02-21T07:17:43.677Z,31.90
2018-02-21T07:43:32.792Z,32.38
2018-02-21T07:45:36.974Z,31.55
2018-02-21T07:47:40.785Z,33.33
2018-02-21T07:49:45.556Z,31.52
2018-02-21T07:51:49.647Z,32.05
2018-02-21T07:53:53.708Z,32.33
2018-02-21T07:55:57.197Z,33.47
2018-02-21T07:58:00.519Z,32.45
2018-02-21T08:00:05.892Z,34.05
2018-02-21T08:02:10.540Z,35.00
2018-02-21T08:04:13.896Z,35.88
2018-02-21T08:06:17.917Z,35.63
2018-02-21T08:08:21.578Z,35.50
2018-02-21T08:10:25.098Z,36.63
2018-02-21T08:12:28.414Z,36.05
2018-02-21T08:14:31.693Z,36.17
2018-02-21T08:16:35.015Z,41.50
2018-02-21T08:18:39.840Z,41.00
2018-02-21T08:20:43.242Z,46.37
2018-02-21T08:22:46.527Z,45.50
2018-02-21T08:24:49.795Z,47.42
2018-02-21T08:26:53.963Z,48.50
2018-02-21T08:28:57.367Z,48.42
2018-02-21T08:31:00.670Z,46.70
2018-02-21T08:33:04.033Z,44.63
2018-02-21T08:35:28.130Z,42.60
2018-02-21T08:37:32.975Z,40.17
2018-02-21T08:39:38.246Z,39.08
2018-02-21T08:41:41.602Z,42.10
2018-02-21T08:43:46.020Z,41.63
2018-02-21T08:45:50.117Z,42.88
2018-02-21T08:47:53.488Z,42.67
2018-02-21T08:49:57.764Z,43.17
2018-02-21T08:52:01.195Z,42.05
2018-02-21T08:54:04.644Z,44.33
2018-02-21T08:56:08.055Z,43.97
2018-02-21T08:58:11.375Z,41.93
2018-02-21T09:00:15.506Z,45.27
2018-02-21T09:02:20.228Z,44.37
2018-02-21T09:04:24.546Z,45.87
2018-02-21T09:06:29.067Z,42.60
2018-02-21T09:08:33.371Z,45.77
2018-02-21T09:10:37.509Z,45.10
2018-02-21T09:12:40.838Z,42.40
2018-02-21T09:14:44.868Z,45.90
2018-02-21T09:16:48.202Z,43.40
2018-02-21T09:18:51.541Z,44.27
2018-02-21T09:20:55.609Z,43.60
2018-02-21T09:22:59.203Z,41.97
2018-02-21T09:25:03.359Z,40.73
2018-02-21T09:27:06.676Z,40.77
2018-02-21T09:29:10.089Z,41.00
2018-02-21T09:31:13.405Z,35.97
2018-02-21T09:33:16.660Z,34.90
2018-02-21T09:35:21.780Z,34.83
2018-02-21T09:37:25.124Z,35.70
2018-02-21T09:39:28.448Z,33.20
2018-02-21T09:41:32.567Z,34.80
2018-02-21T09:43:36.309Z,33.90
2018-02-21T09:45:39.691Z,34.93
2018-02-21T09:47:43.057Z,35.47
2018-02-21T09:49:46.471Z,35.83
2018-02-21T09:51:49.831Z,33.72
2018-02-21T09:53:54.486Z,33.53
2018-02-21T09:55:58.719Z,33.57
2018-02-21T09:58:02.053Z,32.77
2018-02-21T10:00:05.557Z,34.38
2018-02-21T10:02:08.950Z,29.80
2018-02-21T10:04:12.526Z,32.93
2018-02-21T10:06:16.954Z,32.07
2018-02-21T10:08:20.549Z,31.67
2018-02-21T10:10:25.352Z,30.80
2018-02-21T10:12:28.774Z,30.73
2018-02-21T10:14:32.983Z,31.03
2018-02-21T10:16:36.682Z,30.23
2018-02-21T10:18:41.192Z,30.47
2018-02-21T10:20:45.475Z,29.07
2018-02-21T10:22:49.516Z,29.52
2018-02-21T10:24:53.621Z,29.50
2018-02-21T10:26:57.234Z,27.33
2018-02-21T10:29:02.550Z,27.77
2018-02-21T10:31:05.957Z,27.23
2018-02-21T10:33:10.490Z,27.43
2018-02-21T10:35:16.570Z,27.70
2018-02-21T10:37:19.952Z,26.70
2018-02-21T10:39:23.569Z,26.93
2018-02-21T10:41:27.067Z,27.60
2018-02-21T10:43:30.514Z,29.33
2018-02-21T10:45:35.728Z,29.07
2018-02-21T10:47:39.143Z,30.65
2018-02-21T10:49:42.526Z,28.47
2018-02-21T10:51:46.513Z,31.87
2018-02-21T10:53:49.985Z,31.10
2018-02-21T10:55:53.524Z,31.27
2018-02-21T10:57:56.873Z,32.50
2018-02-21T11:00:01.365Z,30.00
2018-02-21T11:02:05.581Z,31.00
2018-02-21T11:04:08.953Z,32.63
2018-02-21T11:06:15.376Z,33.67
2018-02-21T11:08:20.797Z,31.60
2018-02-21T11:10:24.738Z,32.60
2018-02-21T11:12:30.557Z,30.47
2018-02-21T11:14:35.073Z,31.50
2018-02-21T11:16:38.765Z,31.90
2018-02-21T11:18:43.005Z,31.97
2018-02-21T11:20:47.387Z,31.10
2018-02-21T11:22:52.556Z,31.80
2018-02-21T11:24:57.631Z,31.13
2018-02-21T11:27:01.235Z,32.07
2018-02-21T11:29:05.829Z,31.23
2018-02-21T11:31:11.152Z,29.40
2018-02-21T11:33:16.083Z,30.33
2018-02-21T11:35:22.077Z,31.57
2018-02-21T11:37:25.629Z,31.17
2018-02-21T11:39:31.633Z,29.53
2018-02-21T11:41:35.677Z,29.52
2018-02-21T11:43:42.540Z,30.07
2018-02-21T11:45:46.840Z,30.77
2018-02-21T11:47:50.444Z,31.90
2018-02-21T11:49:53.819Z,31.73
2018-02-21T11:51:57.423Z,30.37
2018-02-21T11:54:00.787Z,29.97
2018-02-21T11:56:05.026Z,31.03
2018-02-21T11:58:08.550Z,31.87
2018-02-21T12:00:12.031Z,32.57
2018-02-21T12:02:15.689Z,30.77
2018-02-21T12:04:19.127Z,32.60
2018-02-21T12:06:22.460Z,31.90
2018-02-21T12:08:25.874Z,32.28
2018-02-21T12:10:30.529Z,31.60
2018-02-21T12:12:34.695Z,30.83
2018-02-21T12:14:38.067Z,32.17
2018-02-21T12:16:41.434Z,30.13
2018-02-21T12:18:45.507Z,31.33
2018-02-21T12:20:48.864Z,31.57
2018-02-21T12:22:52.222Z,30.65
2018-02-21T12:24:55.620Z,30.60
2018-02-21T12:26:58.933Z,31.13
2018-02-21T12:31:47.544Z,31.50
2018-02-21T12:39:26.283Z,29.30
2018-02-21T12:41:35.709Z,30.90
2018-02-21T12:43:38.895Z,30.53
2018-02-21T12:45:42.132Z,30.37
2018-02-21T12:47:45.337Z,30.20
2018-02-21T12:49:48.554Z,30.87
2018-02-21T12:51:51.755Z,31.33
2018-02-21T12:53:54.967Z,28.80
2018-02-21T12:56:48.609Z,27.80
2018-02-21T12:58:51.792Z,29.83
2018-02-21T13:00:55.009Z,29.53
2018-02-21T13:02:58.184Z,27.73
2018-02-21T13:05:01.406Z,28.37
2018-02-21T13:07:04.556Z,28.87
2018-02-21T13:09:08.510Z,29.00
2018-02-21T13:11:11.682Z,28.30
2018-02-21T13:13:15.605Z,29.87
2018-02-21T13:15:18.788Z,29.37
2018-02-21T13:17:22.023Z,28.33
2018-02-21T13:19:25.209Z,28.90
2018-02-21T13:21:28.385Z,27.73
2018-02-21T13:23:31.544Z,28.70
2018-02-21T13:25:34.703Z,28.43
2018-02-21T13:27:39.013Z,29.08
2018-02-21T13:29:42.994Z,27.87
2018-02-21T13:31:46.144Z,30.00
2018-02-21T13:33:50.114Z,29.15
2018-02-21T13:35:53.277Z,28.25
2018-02-21T13:37:57.209Z,28.25
2018-02-21T13:40:01.166Z,28.93
2018-02-21T13:42:04.318Z,29.23
2018-02-21T13:44:07.496Z,29.67
2018-02-21T13:46:10.647Z,29.57
2018-02-21T13:48:14.560Z,32.27
2018-02-21T13:50:17.749Z,29.97
2018-02-21T13:52:20.929Z,30.03
2018-02-21T13:54:24.077Z,27.47
2018-02-21T13:56:27.260Z,27.77
2018-02-21T13:58:30.405Z,27.63
2018-02-21T14:00:34.320Z,27.57
2018-02-21T14:02:37.498Z,26.92
2018-02-21T14:04:41.504Z,27.15
2018-02-21T14:06:44.662Z,27.33
2018-02-21T14:08:47.900Z,26.37
2018-02-21T14:10:51.845Z,25.52
2018-02-21T14:12:54.987Z,26.83
2018-02-21T14:14:58.153Z,26.27
2018-02-21T14:17:01.335Z,26.23
2018-02-21T14:19:05.255Z,26.67
2018-02-21T14:21:08.400Z,26.37
2018-02-21T14:23:11.576Z,26.20
2018-02-21T14:25:15.521Z,26.87
2018-02-21T14:27:18.671Z,25.17
2018-02-21T14:29:21.852Z,26.65
2018-02-21T14:31:25.002Z,26.03
2018-02-21T14:33:28.176Z,26.10
2018-02-21T14:35:31.324Z,28.50
2018-02-21T14:37:34.509Z,26.80
2018-02-21T14:39:37.664Z,25.57
2018-02-21T14:41:42.701Z,27.73
2018-02-21T14:43:46.645Z,26.40
2018-02-21T14:45:50.557Z,26.50
2018-02-21T14:47:54.506Z,27.53
2018-02-21T14:49:57.697Z,27.20
2018-02-21T14:52:01.645Z,27.67
2018-02-21T14:54:04.795Z,24.50
2018-02-21T14:56:07.950Z,24.83
2018-02-21T14:58:11.134Z,28.27
2018-02-21T15:00:15.148Z,23.13
2018-02-21T15:02:18.329Z,23.20
2018-02-21T15:04:21.500Z,24.47
2018-02-21T15:06:24.649Z,22.10
2018-02-21T15:08:27.833Z,22.17
2018-02-21T15:10:31.018Z,22.37
2018-02-21T15:12:35.000Z,21.77
2018-02-21T15:14:38.150Z,20.60
2018-02-21T15:16:43.216Z,21.17
2018-02-21T15:18:46.373Z,20.95
2018-02-21T15:20:49.527Z,21.37
2018-02-21T15:22:52.721Z,23.00
2018-02-21T15:24:56.663Z,23.70
2018-02-21T15:26:59.813Z,26.97
2018-02-21T15:29:02.989Z,25.40
2018-02-21T15:31:06.146Z,19.60
2018-02-21T15:33:09.333Z,19.13
2018-02-21T15:35:12.549Z,18.37
2018-02-21T15:37:16.479Z,18.47
2018-02-21T15:39:19.945Z,18.02
2018-02-21T15:41:23.339Z,17.27
2018-02-21T15:43:27.559Z,16.97
2018-02-21T15:45:31.083Z,17.33
2018-02-21T15:47:34.320Z,16.33
2018-02-21T15:49:37.504Z,15.93
2018-02-21T15:51:41.580Z,16.30
2018-02-21T15:53:44.760Z,17.33
2018-02-21T15:55:47.913Z,17.12
2018-02-21T15:57:51.774Z,16.97
2018-02-21T15:59:55.712Z,16.87
2018-02-21T16:01:58.861Z,15.57
2018-02-21T16:04:02.052Z,17.07
2018-02-21T16:06:05.276Z,15.97
2018-02-21T16:08:08.430Z,16.33
2018-02-21T16:10:13.422Z,17.10
2018-02-21T16:12:16.573Z,16.40
2018-02-21T16:14:19.744Z,16.43
2018-02-21T16:16:22.898Z,17.20
2018-02-21T16:18:27.152Z,17.37
2018-02-21T16:20:30.308Z,17.20
2018-02-21T16:22:34.256Z,17.47
2018-02-21T16:24:38.275Z,17.87
2018-02-21T16:26:41.429Z,17.85
2018-02-21T16:28:44.613Z,16.90
2018-02-21T16:30:48.566Z,16.13
2018-02-21T16:32:51.746Z,17.03
2018-02-21T16:34:55.866Z,16.60
2018-02-21T16:36:59.815Z,16.92
2018-02-21T16:39:03.338Z,17.60
2018-02-21T16:41:06.618Z,18.13
2018-02-21T16:43:09.793Z,17.43
2018-02-21T16:45:12.962Z,17.47
2018-02-21T16:47:16.148Z,17.37
2018-02-21T16:49:20.193Z,15.83
2018-02-21T16:51:24.106Z,25.45
2018-02-21T16:53:28.121Z,18.53
2018-02-21T16:55:32.381Z,18.27
2018-02-21T16:57:35.724Z,23.85
2018-02-21T16:59:39.361Z,18.85
2018-02-21T17:01:42.505Z,22.27
2018-02-21T17:03:46.428Z,18.27
2018-02-21T17:05:50.386Z,17.43
2018-02-21T17:07:53.616Z,18.73
2018-02-21T17:09:57.284Z,18.60
2018-02-21T17:12:00.441Z,17.30
2018-02-21T17:14:03.633Z,17.97
2018-02-21T17:16:06.857Z,19.07
2018-02-21T17:18:10.040Z,18.53
2018-02-21T17:20:13.396Z,19.47
2018-02-21T17:22:17.375Z,24.03
2018-02-21T17:24:20.571Z,19.73
2018-02-21T17:26:24.512Z,20.37
2018-02-21T17:28:27.656Z,20.17
2018-02-21T17:30:30.808Z,23.97
2018-02-21T17:32:33.999Z,20.13
2018-02-21T17:34:37.948Z,19.37
2018-02-21T17:36:41.133Z,24.27
2018-02-21T17:38:44.328Z,22.63
2018-02-21T17:40:52.919Z,28.87
2018-02-21T17:42:56.068Z,23.07
2018-02-21T17:44:59.312Z,25.03
2018-02-21T17:47:02.703Z,24.77
2018-02-21T17:49:06.988Z,23.42
2018-02-21T17:51:11.635Z,19.67
2018-02-21T17:53:18.416Z,19.47
2018-02-21T17:55:22.829Z,18.40
2018-02-21T17:57:28.193Z,17.65
2018-02-21T17:59:31.369Z,16.95
2018-02-21T18:01:34.554Z,17.37
2018-02-21T18:03:37.737Z,17.50
2018-02-21T18:05:42.344Z,18.40
2018-02-21T18:07:46.268Z,18.43
2018-02-21T18:09:50.216Z,20.00
2018-02-21T18:11:53.399Z,18.70
2018-02-21T18:13:57.629Z,15.83
2018-02-21T18:16:02.776Z,15.83
2018-02-21T18:18:06.707Z,16.33
2018-02-21T18:20:10.617Z,20.67
2018-02-21T18:22:13.795Z,17.77
2018-02-21T18:24:16.972Z,18.37
2018-02-21T18:26:20.145Z,19.17
2018-02-21T18:28:23.318Z,21.93
2018-02-21T18:30:26.656Z,19.80
2018-02-21T18:32:30.109Z,15.57
2018-02-21T18:34:33.281Z,14.80
2018-02-21T18:36:36.458Z,15.60
2018-02-21T18:38:39.614Z,15.30
2018-02-21T18:40:43.032Z,14.57
2018-02-21T18:42:46.968Z,15.40
2018-02-21T18:44:50.193Z,15.20
2018-02-21T18:46:55.104Z,15.07
2018-02-21T18:48:59.367Z,14.90
2018-02-21T18:51:03.368Z,15.55
2018-02-21T18:53:07.283Z,15.80
2018-02-21T18:55:10.584Z,14.70
2018-02-21T18:57:14.073Z,15.27
2018-02-21T18:59:18.047Z,14.60
2018-02-21T19:01:22.038Z,15.73
2018-02-21T19:03:26.063Z,16.00
2018-02-21T19:05:29.384Z,17.27
2018-02-21T19:07:33.710Z,17.03
2018-02-21T19:09:37.136Z,16.50
2018-02-21T19:11:41.011Z,17.83
2018-02-21T19:13:44.948Z,18.20
2018-02-21T19:15:48.625Z,17.33
2018-02-21T19:17:53.195Z,17.30
2018-02-21T19:19:56.989Z,17.47
2018-02-21T19:22:00.918Z,17.30
2018-02-21T19:24:06.733Z,17.33
2018-02-21T19:26:10.405Z,19.65
2018-02-21T19:28:14.489Z,18.50
2018-02-21T19:30:18.748Z,19.77
2018-02-21T19:32:22.137Z,19.67
2018-02-21T19:34:26.984Z,20.43
2018-02-21T19:36:32.409Z,19.07
2018-02-21T19:38:35.921Z,18.53
2018-02-21T19:40:39.134Z,18.17
2018-02-21T19:42:44.068Z,18.33
2018-02-21T19:44:49.018Z,18.27
2018-02-21T19:46:52.177Z,16.52
2018-02-21T19:48:55.352Z,22.67
2018-02-21T19:50:58.518Z,31.98
2018-02-21T19:53:02.448Z,26.17
2018-02-21T19:55:06.428Z,41.87
2018-02-21T19:57:09.579Z,22.63
2018-02-21T19:59:13.731Z,21.83
2018-02-21T20:01:17.025Z,24.63
2018-02-21T20:03:21.040Z,15.47
2018-02-21T20:05:24.459Z,15.83
2018-02-21T20:07:28.760Z,24.58
2018-02-21T20:09:32.044Z,17.43
2018-02-21T20:11:35.267Z,17.63
2018-02-21T20:13:38.441Z,19.47
2018-02-21T20:15:41.688Z,16.13
2018-02-21T20:17:44.923Z,14.97
2018-02-21T20:19:49.343Z,16.35
2018-02-21T20:21:52.488Z,15.80
2018-02-21T20:23:56.480Z,15.97
2018-02-21T20:25:59.656Z,15.83
2018-02-21T20:28:02.934Z,14.43
2018-02-21T20:30:06.885Z,16.27
2018-02-21T20:32:10.071Z,15.47
2018-02-21T20:34:13.789Z,14.67
2018-02-21T20:36:17.010Z,15.50
2018-02-21T20:38:20.910Z,16.47
2018-02-21T20:40:24.018Z,15.67
2018-02-21T20:42:27.224Z,15.87
2018-02-21T20:44:30.649Z,16.90
2018-02-21T20:46:33.961Z,16.85
2018-02-21T20:48:37.989Z,16.33
2018-02-21T20:50:42.240Z,16.50
2018-02-21T20:52:45.458Z,16.13
2018-02-21T20:54:48.608Z,17.20
2018-02-21T20:56:51.760Z,16.87
2018-02-21T20:58:54.944Z,16.53
2018-02-21T21:00:59.000Z,17.17
2018-02-21T21:03:02.175Z,15.93
2018-02-21T21:05:06.504Z,15.87
2018-02-21T21:07:09.704Z,15.70
2018-02-21T21:09:13.621Z,15.63
2018-02-21T21:11:16.774Z,15.90
2018-02-21T21:13:20.022Z,16.63
2018-02-21T21:15:23.177Z,15.67
2018-02-21T21:17:27.132Z,18.33
2018-02-21T21:19:31.570Z,16.67
2018-02-21T21:21:34.720Z,16.77
2018-02-21T21:23:38.051Z,15.60
2018-02-21T21:25:42.169Z,16.73
2018-02-21T21:27:46.936Z,17.90
2018-02-21T21:29:50.368Z,16.93
2018-02-21T21:31:53.672Z,17.83
2018-02-21T21:33:56.902Z,15.40
2018-02-21T21:36:00.736Z,16.83
2018-02-21T21:38:03.964Z,16.57
2018-02-21T21:40:07.573Z,17.33
2018-02-21T21:42:10.728Z,15.67
2018-02-21T21:44:14.673Z,15.97
2018-02-21T21:46:17.859Z,16.65
2018-02-21T21:48:21.800Z,16.20
2018-02-21T21:50:24.980Z,16.97
2018-02-21T21:52:28.119Z,15.83
2018-02-21T21:54:33.188Z,16.43
2018-02-21T21:56:36.336Z,17.17
2018-02-21T21:58:40.279Z,17.23
2018-02-21T22:00:44.533Z,17.23
2018-02-21T22:02:47.741Z,16.17
2018-02-21T22:04:51.625Z,17.43
2018-02-21T22:06:56.315Z,17.23
2018-02-21T22:08:59.465Z,16.40
2018-02-21T22:11:02.641Z,17.30
2018-02-21T22:13:05.828Z,16.65
2018-02-21T22:15:09.009Z,16.53
2018-02-21T22:17:14.056Z,17.53
2018-02-21T22:19:17.212Z,17.07
2018-02-21T22:21:20.386Z,17.83
2018-02-21T22:23:24.304Z,17.98
2018-02-21T22:25:28.216Z,15.33
2018-02-21T22:27:31.401Z,16.53
2018-02-21T22:29:34.581Z,16.85
2018-02-21T22:31:37.761Z,16.73
2018-02-21T22:33:42.640Z,16.80
2018-02-21T22:35:46.156Z,17.10
2018-02-21T22:37:49.336Z,17.00
2018-02-21T22:39:52.523Z,16.90
2018-02-21T22:41:55.712Z,16.87
2018-02-21T22:43:58.861Z,17.80
2018-02-21T22:46:02.857Z,15.87
2018-02-21T22:48:05.976Z,16.97
2018-02-21T22:50:09.893Z,16.50
2018-02-21T22:52:13.077Z,17.03
2018-02-21T22:54:16.225Z,15.60
2018-02-21T22:56:20.149Z,16.60
2018-02-21T22:58:23.344Z,17.60
2018-02-21T23:00:26.497Z,16.80
2018-02-21T23:02:29.640Z,16.40
2018-02-21T23:04:32.830Z,17.37
2018-02-21T23:06:36.009Z,16.07
2018-02-21T23:08:39.180Z,16.57
2018-02-21T23:10:43.095Z,17.07
2018-02-21T23:12:46.336Z,17.10
2018-02-21T23:14:50.281Z,17.53
2018-02-21T23:16:53.436Z,17.93
2018-02-21T23:18:56.591Z,17.13
2018-02-21T23:20:59.779Z,15.98
2018-02-21T23:23:03.697Z,16.50
2018-02-21T23:25:07.000Z,16.30
2018-02-21T23:27:10.923Z,17.27
2018-02-21T23:29:15.964Z,16.80
2018-02-21T23:31:19.161Z,16.27
2018-02-21T23:33:22.316Z,16.33
2018-02-21T23:35:26.237Z,16.20
2018-02-21T23:37:30.177Z,16.67
2018-02-21T23:39:33.373Z,15.93
2018-02-21T23:41:37.308Z,16.33
2018-02-21T23:43:40.468Z,15.93
2018-02-21T23:45:43.652Z,16.80
2018-02-21T23:47:47.832Z,16.67
2018-02-21T23:49:51.762Z,17.90
2018-02-21T23:51:56.854Z,17.13
2018-02-21T23:54:00.008Z,18.50
2018-02-21T23:56:03.949Z,17.77
2018-02-21T23:58:08.148Z,19.47
